createdAt,value
2023-02-08T00:02:15.339Z,17.10
2023-02-08T00:04:42.198Z,17.83
2023-02-08T00:07:09.128Z,16.97
2023-02-08T00:09:35.937Z,16.10
2023-02-08T00:12:03.637Z,17.57
2023-02-08T00:14:30.367Z,17.30
2023-02-08T00:16:57.091Z,18.17
2023-02-08T00:19:23.904Z,19.03
2023-02-08T00:21:52.946Z,16.77
2023-02-08T00:24:19.694Z,16.67
2023-02-08T00:26:46.468Z,17.40
2023-02-08T00:29:13.238Z,15.77
2023-02-08T00:31:40.117Z,16.40
2023-02-08T00:34:06.945Z,17.37
2023-02-08T00:36:34.104Z,15.87
2023-02-08T00:39:00.928Z,15.80
2023-02-08T00:41:27.744Z,16.60
2023-02-08T00:43:54.626Z,16.77
2023-02-08T00:46:21.745Z,17.80
2023-02-08T00:48:48.621Z,17.90
2023-02-08T00:51:15.802Z,17.93
2023-02-08T00:53:45.810Z,17.10
2023-02-08T00:56:14.261Z,17.20
2023-02-08T00:58:41.996Z,16.53
2023-02-08T01:01:09.289Z,15.93
2023-02-08T01:03:38.555Z,16.50
2023-02-08T01:06:08.705Z,16.17
2023-02-08T01:08:35.687Z,14.77
2023-02-08T01:11:08.509Z,16.90
2023-02-08T01:13:36.306Z,17.70
2023-02-08T01:16:23.202Z,16.73
2023-02-08T01:18:52.950Z,16.23
2023-02-08T01:21:22.926Z,16.20
2023-02-08T01:23:50.175Z,14.43
2023-02-08T01:26:18.339Z,15.00
2023-02-08T01:28:45.488Z,17.13
2023-02-08T01:31:16.789Z,16.50
2023-02-08T01:33:43.578Z,16.20
2023-02-08T01:36:11.078Z,16.60
2023-02-08T01:38:38.651Z,15.50
2023-02-08T01:41:08.150Z,16.80
2023-02-08T01:44:05.191Z,17.20
2023-02-08T01:46:34.362Z,16.03
2023-02-08T01:49:19.987Z,16.23
2023-02-08T01:52:11.352Z,17.07
2023-02-08T01:54:50.691Z,15.80
2023-02-08T01:57:18.063Z,16.67
2023-02-08T01:59:58.890Z,16.63
2023-02-08T02:02:26.586Z,17.03
2023-02-08T02:04:54.307Z,15.23
2023-02-08T02:07:26.235Z,15.77
2023-02-08T02:09:56.117Z,16.77
2023-02-08T02:12:23.001Z,16.03
2023-02-08T02:14:49.888Z,17.50
2023-02-08T02:17:19.766Z,15.07
2023-02-08T02:20:08.645Z,15.93
2023-02-08T02:22:35.566Z,16.60
2023-02-08T02:25:27.138Z,15.80
2023-02-08T02:28:28.073Z,17.47
2023-02-08T02:31:29.216Z,16.33
2023-02-08T02:33:55.926Z,15.73
2023-02-08T02:36:29.092Z,15.23
2023-02-08T02:39:27.164Z,14.03
2023-02-08T02:42:29.123Z,17.00
2023-02-08T02:45:16.864Z,16.40
2023-02-08T02:48:05.261Z,18.83
2023-02-08T02:50:42.831Z,20.80
2023-02-08T02:53:28.487Z,22.30
2023-02-08T02:56:25.195Z,22.80
2023-02-08T02:58:53.285Z,21.83
2023-02-08T03:01:27.093Z,21.77
2023-02-08T03:03:54.773Z,19.70
2023-02-08T03:07:02.996Z,21.50
2023-02-08T03:09:48.454Z,22.77
2023-02-08T03:12:36.141Z,22.50
2023-02-08T03:15:35.314Z,21.63
2023-02-08T03:18:32.455Z,24.47
2023-02-08T03:21:08.295Z,20.63
2023-02-08T03:23:57.043Z,20.53
2023-02-08T03:26:36.704Z,20.47
2023-02-08T03:29:29.850Z,21.53
2023-02-08T03:32:04.248Z,18.37
2023-02-08T03:35:03.157Z,21.00
2023-02-08T03:37:45.466Z,20.67
2023-02-08T03:40:16.672Z,21.27
2023-02-08T03:42:46.048Z,19.23
2023-02-08T03:45:21.718Z,20.50
2023-02-08T03:47:52.455Z,20.87
2023-02-08T03:50:21.611Z,18.93
2023-02-08T03:52:50.391Z,18.83
2023-02-08T03:55:27.457Z,21.73
2023-02-08T03:58:05.101Z,20.83
2023-02-08T04:00:36.642Z,18.57
2023-02-08T04:03:15.922Z,19.23
2023-02-08T04:05:43.144Z,21.10
2023-02-08T04:08:10.072Z,20.97
2023-02-08T04:10:37.012Z,20.63
2023-02-08T04:13:04.543Z,20.97
2023-02-08T04:15:31.364Z,20.13
2023-02-08T04:17:58.182Z,20.37
2023-02-08T04:20:24.930Z,22.07
2023-02-08T04:22:51.764Z,21.17
2023-02-08T04:25:18.899Z,21.47
2023-02-08T04:27:45.744Z,19.83
2023-02-08T04:30:13.953Z,19.00
2023-02-08T04:32:41.897Z,18.87
2023-02-08T04:35:08.749Z,18.97
2023-02-08T04:37:35.704Z,18.57
2023-02-08T04:40:02.684Z,21.97
2023-02-08T04:42:30.335Z,18.47
2023-02-08T04:44:57.066Z,21.40
2023-02-08T04:47:23.884Z,22.67
2023-02-08T04:49:50.721Z,19.53
2023-02-08T04:52:17.482Z,21.43
2023-02-08T04:54:44.209Z,20.67
2023-02-08T04:57:14.999Z,18.70
2023-02-08T04:59:42.011Z,19.73
2023-02-08T05:02:09.153Z,20.27
2023-02-08T05:04:36.292Z,20.70
2023-02-08T05:07:03.366Z,20.43
2023-02-08T05:09:30.287Z,20.07
2023-02-08T05:11:57.014Z,19.30
2023-02-08T05:14:23.771Z,21.80
2023-02-08T05:16:50.674Z,19.90
2023-02-08T05:19:17.476Z,20.37
2023-02-08T05:21:44.283Z,20.43
2023-02-08T05:24:12.419Z,20.77
2023-02-08T05:26:41.435Z,18.53
2023-02-08T05:29:08.797Z,19.27
2023-02-08T05:31:35.674Z,20.27
2023-02-08T05:34:02.705Z,19.27
2023-02-08T05:36:29.540Z,20.13
2023-02-08T05:38:56.361Z,18.90
2023-02-08T05:41:23.265Z,17.43
2023-02-08T05:43:50.091Z,17.67
2023-02-08T05:46:16.894Z,17.50
2023-02-08T05:48:43.709Z,18.10
2023-02-08T05:51:10.537Z,18.43
2023-02-08T05:53:37.750Z,19.20
2023-02-08T05:56:05.020Z,18.80
2023-02-08T05:58:31.878Z,19.13
2023-02-08T06:00:58.752Z,19.17
2023-02-08T06:03:25.602Z,19.00
2023-02-08T06:05:52.428Z,18.13
2023-02-08T06:08:19.306Z,17.83
2023-02-08T06:10:49.662Z,19.60
2023-02-08T06:13:16.411Z,18.73
2023-02-08T06:15:43.281Z,17.97
2023-02-08T06:18:11.891Z,19.77
2023-02-08T06:20:39.169Z,19.33
2023-02-08T06:23:07.787Z,18.13
2023-02-08T06:25:35.787Z,18.90
2023-02-08T06:28:03.192Z,18.43
2023-02-08T06:30:30.221Z,20.33
2023-02-08T06:32:57.198Z,20.17
2023-02-08T06:35:24.226Z,20.67
2023-02-08T06:37:50.949Z,20.37
2023-02-08T06:40:17.908Z,19.17
2023-02-08T06:42:45.025Z,18.37
2023-02-08T06:45:13.673Z,17.77
2023-02-08T06:47:42.062Z,17.50
2023-02-08T06:50:09.902Z,18.60
2023-02-08T06:52:37.262Z,18.30
2023-02-08T06:55:06.733Z,19.00
2023-02-08T06:57:33.489Z,18.33
2023-02-08T07:00:00.400Z,16.63
2023-02-08T07:02:28.721Z,20.80
2023-02-08T07:04:55.938Z,19.80
2023-02-08T07:07:22.677Z,18.40
2023-02-08T07:09:49.452Z,18.97
2023-02-08T07:12:17.238Z,19.40
2023-02-08T07:14:44.495Z,23.10
2023-02-08T07:17:12.980Z,23.97
2023-02-08T07:19:40.361Z,26.57
2023-02-08T07:22:10.400Z,26.23
2023-02-08T07:24:39.396Z,24.57
2023-02-08T07:27:07.915Z,23.47
2023-02-08T07:29:35.173Z,21.97
2023-02-08T07:32:03.510Z,23.53
2023-02-08T07:34:32.583Z,23.20
2023-02-08T07:36:59.457Z,23.33
2023-02-08T07:39:26.810Z,22.87
2023-02-08T07:41:53.643Z,24.03
2023-02-08T07:44:20.439Z,23.23
2023-02-08T07:46:47.138Z,21.33
2023-02-08T07:49:14.044Z,20.33
2023-02-08T07:51:40.839Z,20.20
2023-02-08T07:54:07.724Z,23.80
2023-02-08T07:56:34.656Z,19.27
2023-02-08T07:59:01.460Z,22.23
2023-02-08T08:01:28.324Z,22.07
2023-02-08T08:03:55.409Z,19.80
2023-02-08T08:06:23.337Z,20.17
2023-02-08T08:08:50.801Z,24.53
2023-02-08T08:11:19.179Z,21.50
2023-02-08T08:13:45.968Z,27.07
2023-02-08T08:16:13.781Z,24.93
2023-02-08T08:18:40.652Z,23.63
2023-02-08T08:21:07.780Z,21.33
2023-02-08T08:23:36.203Z,23.00
2023-02-08T08:26:13.948Z,21.30
2023-02-08T08:28:42.474Z,22.43
2023-02-08T08:31:11.723Z,20.20
2023-02-08T08:33:38.588Z,20.10
2023-02-08T08:36:05.612Z,20.83
2023-02-08T08:38:32.383Z,20.70
2023-02-08T08:40:59.150Z,21.13
2023-02-08T08:43:25.914Z,19.57
2023-02-08T08:45:53.146Z,20.23
2023-02-08T08:48:20.108Z,21.20
2023-02-08T08:50:53.286Z,20.10
2023-02-08T08:53:22.045Z,20.50
2023-02-08T08:55:48.859Z,20.03
2023-02-08T08:58:15.585Z,18.07
2023-02-08T09:00:42.625Z,18.67
2023-02-08T09:03:09.728Z,18.53
2023-02-08T09:05:36.562Z,19.03
2023-02-08T09:08:03.688Z,18.33
2023-02-08T09:10:31.161Z,19.37
2023-02-08T09:12:58.711Z,19.63
2023-02-08T09:15:25.659Z,19.40
2023-02-08T09:17:52.365Z,20.37
2023-02-08T09:20:19.384Z,18.93
2023-02-08T09:22:46.305Z,19.33
2023-02-08T09:25:13.528Z,19.27
2023-02-08T09:27:41.046Z,17.87
2023-02-08T09:30:08.771Z,21.33
2023-02-08T09:32:36.721Z,19.50
2023-02-08T09:35:03.703Z,22.33
2023-02-08T09:37:31.032Z,24.33
2023-02-08T09:40:00.170Z,21.67
2023-02-08T09:42:38.046Z,19.10
2023-02-08T09:45:11.663Z,18.90
2023-02-08T09:47:49.414Z,18.50
2023-02-08T09:50:35.146Z,18.90
2023-02-08T09:53:15.101Z,20.43
2023-02-08T09:55:49.494Z,19.63
2023-02-08T09:58:29.338Z,19.27
2023-02-08T10:00:56.694Z,18.73
2023-02-08T10:03:39.126Z,18.23
2023-02-08T10:06:09.801Z,19.17
2023-02-08T10:08:36.838Z,19.57
2023-02-08T10:11:08.173Z,19.00
2023-02-08T10:13:53.687Z,18.93
2023-02-08T10:16:23.498Z,19.23
2023-02-08T10:19:04.697Z,19.73
2023-02-08T10:21:40.566Z,20.17
2023-02-08T10:24:28.381Z,19.03
2023-02-08T10:27:24.068Z,19.10
2023-02-08T10:30:09.695Z,17.77
2023-02-08T10:32:43.378Z,17.27
2023-02-08T10:35:19.949Z,17.20
2023-02-08T10:37:46.799Z,14.70
2023-02-08T10:40:17.275Z,16.50
2023-02-08T10:42:50.698Z,14.77
2023-02-08T10:45:32.198Z,12.27
2023-02-08T10:48:02.937Z,13.63
2023-02-08T10:50:41.416Z,13.20
2023-02-08T10:53:17.657Z,12.47
2023-02-08T10:55:49.505Z,12.43
2023-02-08T10:58:19.990Z,12.83
2023-02-08T11:00:49.064Z,13.90
2023-02-08T11:03:27.261Z,12.57
2023-02-08T11:05:54.513Z,12.60
2023-02-08T11:08:27.730Z,13.20
2023-02-08T11:11:10.106Z,11.43
2023-02-08T11:13:36.965Z,12.03
2023-02-08T11:16:06.875Z,10.70
2023-02-08T11:18:47.194Z,11.17
2023-02-08T11:21:34.637Z,11.37
2023-02-08T11:24:27.093Z,9.93
2023-02-08T11:26:56.288Z,11.77
2023-02-08T11:29:29.474Z,12.27
2023-02-08T11:32:02.209Z,12.37
2023-02-08T11:34:38.560Z,11.70
2023-02-08T11:37:26.612Z,11.13
2023-02-08T11:40:00.606Z,10.37
2023-02-08T11:42:40.801Z,11.23
2023-02-08T11:45:08.231Z,11.80
2023-02-08T11:47:37.238Z,10.93
2023-02-08T11:50:08.940Z,10.90
2023-02-08T11:52:42.702Z,10.60
2023-02-08T11:55:18.684Z,10.03
2023-02-08T11:58:19.525Z,9.80
2023-02-08T12:01:06.029Z,9.87
2023-02-08T12:03:36.229Z,8.40
2023-02-08T12:06:47.550Z,9.57
2023-02-08T12:10:11.928Z,8.10
2023-02-08T12:12:44.149Z,8.07
2023-02-08T12:15:27.550Z,8.27
2023-02-08T12:18:00.643Z,7.50
2023-02-08T12:20:42.002Z,6.67
2023-02-08T12:23:34.224Z,6.60
2023-02-08T12:26:15.917Z,6.73
2023-02-08T12:29:03.743Z,6.80
2023-02-08T12:31:49.536Z,7.90
2023-02-08T12:34:30.413Z,6.27
2023-02-08T12:37:24.051Z,5.23
2023-02-08T12:40:45.100Z,5.87
2023-02-08T12:43:17.326Z,6.20
2023-02-08T12:46:15.221Z,5.70
2023-02-08T12:49:20.911Z,6.10
2023-02-08T12:51:56.577Z,7.43
2023-02-08T12:54:49.663Z,5.57
2023-02-08T12:57:20.417Z,5.63
2023-02-08T12:59:54.700Z,5.90
2023-02-08T13:02:35.500Z,6.00
2023-02-08T13:05:06.764Z,5.47
2023-02-08T13:07:41.889Z,5.83
2023-02-08T13:10:26.683Z,5.87
2023-02-08T13:12:58.754Z,6.23
2023-02-08T13:15:39.564Z,5.97
2023-02-08T13:18:39.933Z,6.53
2023-02-08T13:21:41.984Z,6.60
2023-02-08T13:24:41.500Z,7.00
2023-02-08T13:27:15.725Z,7.80
2023-02-08T13:29:47.243Z,6.93
2023-02-08T13:32:44.520Z,6.90
2023-02-08T13:35:19.490Z,6.53
2023-02-08T13:38:05.671Z,7.13
2023-02-08T13:40:36.072Z,7.57
2023-02-08T13:43:06.206Z,8.60
2023-02-08T13:45:40.355Z,8.53
2023-02-08T13:48:11.448Z,7.70
2023-02-08T13:50:49.399Z,8.50
2023-02-08T13:53:17.817Z,8.13
2023-02-08T13:55:57.776Z,6.97
2023-02-08T13:58:46.190Z,6.13
2023-02-08T14:01:20.279Z,6.50
2023-02-08T14:04:06.996Z,5.23
2023-02-08T14:06:47.655Z,5.83
2023-02-08T14:09:38.020Z,6.43
2023-02-08T14:12:27.686Z,6.23
2023-02-08T14:15:16.413Z,6.70
2023-02-08T14:17:49.615Z,7.17
2023-02-08T14:20:21.738Z,7.20
2023-02-08T14:22:53.168Z,7.33
2023-02-08T14:25:24.525Z,7.13
2023-02-08T14:27:55.848Z,7.83
2023-02-08T14:30:30.131Z,6.47
2023-02-08T14:33:07.410Z,7.27
2023-02-08T14:36:01.631Z,7.40
2023-02-08T14:38:47.387Z,6.83
2023-02-08T14:41:47.669Z,7.17
2023-02-08T14:44:39.534Z,7.50
2023-02-08T14:47:13.523Z,7.50
2023-02-08T14:49:44.796Z,6.57
2023-02-08T14:52:15.809Z,6.77
2023-02-08T14:54:56.547Z,6.03
2023-02-08T14:57:32.790Z,6.57
2023-02-08T15:00:02.269Z,7.80
2023-02-08T15:02:31.439Z,8.13
2023-02-08T15:04:59.195Z,7.33
2023-02-08T15:07:49.814Z,8.17
2023-02-08T15:10:18.717Z,7.90
2023-02-08T15:12:49.489Z,7.73
2023-02-08T15:15:33.474Z,7.70
2023-02-08T15:18:02.606Z,7.67
2023-02-08T15:20:32.038Z,6.70
2023-02-08T15:23:26.630Z,7.07
2023-02-08T15:26:00.916Z,7.60
2023-02-08T15:28:30.883Z,8.57
2023-02-08T15:30:59.921Z,8.73
2023-02-08T15:33:27.032Z,9.27
2023-02-08T15:36:14.732Z,8.80
2023-02-08T15:38:44.822Z,9.07
2023-02-08T15:41:29.316Z,9.73
2023-02-08T15:44:15.554Z,9.60
2023-02-08T15:46:43.866Z,9.13
2023-02-08T15:49:17.534Z,8.17
2023-02-08T15:51:46.124Z,7.50
2023-02-08T15:54:18.416Z,8.33
2023-02-08T15:57:01.553Z,7.80
2023-02-08T15:59:32.909Z,7.97
2023-02-08T16:02:19.368Z,8.37
2023-02-08T16:04:47.155Z,7.40
2023-02-08T16:07:44.713Z,7.60
2023-02-08T16:10:43.054Z,7.73
2023-02-08T16:13:26.031Z,8.03
2023-02-08T16:16:07.250Z,7.93
2023-02-08T16:18:38.032Z,7.70
2023-02-08T16:21:18.387Z,7.77
2023-02-08T16:23:51.440Z,7.77
2023-02-08T16:26:32.376Z,7.70
2023-02-08T16:29:05.062Z,8.37
2023-02-08T16:31:35.354Z,8.57
2023-02-08T16:34:07.093Z,6.90
2023-02-08T16:36:39.830Z,8.10
2023-02-08T16:39:16.291Z,7.63
2023-02-08T16:42:14.588Z,7.13
2023-02-08T16:44:59.438Z,7.30
2023-02-08T16:47:38.760Z,6.97
2023-02-08T16:50:07.286Z,7.83
2023-02-08T16:52:34.793Z,7.83
2023-02-08T16:55:02.030Z,8.17
2023-02-08T16:57:44.082Z,9.13
2023-02-08T17:00:28.648Z,7.53
2023-02-08T17:02:56.224Z,8.10
2023-02-08T17:05:25.412Z,9.93
2023-02-08T17:07:52.289Z,8.90
2023-02-08T17:10:38.109Z,10.20
2023-02-08T17:13:19.898Z,10.73
2023-02-08T17:15:50.256Z,11.43
2023-02-08T17:18:17.078Z,11.70
2023-02-08T17:20:44.187Z,11.43
2023-02-08T17:23:12.053Z,12.40
2023-02-08T17:25:39.563Z,11.83
2023-02-08T17:28:14.882Z,11.70
2023-02-08T17:30:43.371Z,13.33
2023-02-08T17:33:21.388Z,14.43
2023-02-08T17:35:52.286Z,12.87
2023-02-08T17:38:20.237Z,13.63
2023-02-08T17:40:47.199Z,13.63
2023-02-08T17:43:14.293Z,13.93
2023-02-08T17:45:42.893Z,13.30
2023-02-08T17:48:10.351Z,14.40
2023-02-08T17:50:37.240Z,14.33
2023-02-08T17:53:04.403Z,14.60
2023-02-08T17:55:31.479Z,14.37
2023-02-08T17:57:58.465Z,13.90
2023-02-08T18:00:25.911Z,14.33
2023-02-08T18:02:55.303Z,14.00
2023-02-08T18:05:27.352Z,13.40
2023-02-08T18:07:56.062Z,13.83
2023-02-08T18:10:24.553Z,14.20
2023-02-08T18:12:51.412Z,13.77
2023-02-08T18:15:21.155Z,12.70
2023-02-08T18:17:50.361Z,14.93
2023-02-08T18:20:17.480Z,13.83
2023-02-08T18:22:44.830Z,14.27
2023-02-08T18:25:13.799Z,15.37
2023-02-08T18:27:40.746Z,15.77
2023-02-08T18:30:08.816Z,16.27
2023-02-08T18:32:35.700Z,15.10
2023-02-08T18:35:07.274Z,16.27
2023-02-08T18:37:35.880Z,16.70
2023-02-08T18:40:02.959Z,16.10
2023-02-08T18:42:29.939Z,17.23
2023-02-08T18:44:56.804Z,18.30
2023-02-08T18:47:23.609Z,18.10
2023-02-08T18:49:54.960Z,17.87
2023-02-08T18:52:23.632Z,17.13
2023-02-08T18:54:50.520Z,18.17
2023-02-08T18:57:17.828Z,18.13
2023-02-08T18:59:44.888Z,18.40
2023-02-08T19:02:21.001Z,20.00
2023-02-08T19:04:48.045Z,19.80
2023-02-08T19:07:15.233Z,19.40
2023-02-08T19:09:43.769Z,21.57
2023-02-08T19:12:10.743Z,21.30
2023-02-08T19:14:37.591Z,22.47
2023-02-08T19:17:04.759Z,21.63
2023-02-08T19:19:31.621Z,20.73
2023-02-08T19:21:58.314Z,21.10
2023-02-08T19:24:25.093Z,21.03
2023-02-08T19:26:51.945Z,20.97
2023-02-08T19:29:22.792Z,19.97
2023-02-08T19:31:50.519Z,21.73
2023-02-08T19:34:18.313Z,20.90
2023-02-08T19:36:51.967Z,19.13
2023-02-08T19:39:26.912Z,18.90
2023-02-08T19:41:54.327Z,19.73
2023-02-08T19:44:21.850Z,19.37
2023-02-08T19:46:55.002Z,19.60
2023-02-08T19:49:23.756Z,18.73
2023-02-08T19:51:50.525Z,20.87
2023-02-08T19:54:19.357Z,19.83
2023-02-08T19:56:48.848Z,20.40
2023-02-08T19:59:27.133Z,21.10
2023-02-08T20:01:54.778Z,20.17
2023-02-08T20:04:22.659Z,21.53
2023-02-08T20:06:52.121Z,20.53
2023-02-08T20:09:18.939Z,20.23
2023-02-08T20:12:00.998Z,20.90
2023-02-08T20:14:31.186Z,21.63
2023-02-08T20:16:58.627Z,20.57
2023-02-08T20:19:25.762Z,19.80
2023-02-08T20:21:53.036Z,19.97
2023-02-08T20:24:20.606Z,21.27
2023-02-08T20:26:48.558Z,19.13
2023-02-08T20:29:15.914Z,20.03
2023-02-08T20:31:45.022Z,21.13
2023-02-08T20:34:14.682Z,20.33
2023-02-08T20:36:47.744Z,20.13
2023-02-08T20:39:20.764Z,20.60
2023-02-08T20:41:48.057Z,21.07
2023-02-08T20:44:17.331Z,18.13
2023-02-08T20:46:44.586Z,20.43
2023-02-08T20:49:16.200Z,20.97
2023-02-08T20:51:43.511Z,21.60
2023-02-08T20:54:11.423Z,18.87
2023-02-08T20:56:38.881Z,20.43
2023-02-08T20:59:16.462Z,19.60
2023-02-08T21:01:46.258Z,18.83
2023-02-08T21:04:13.403Z,19.17
2023-02-08T21:06:44.240Z,19.33
2023-02-08T21:09:17.816Z,18.53
2023-02-08T21:11:45.826Z,18.90
2023-02-08T21:14:18.623Z,19.27
2023-02-08T21:16:48.334Z,18.10
2023-02-08T21:19:16.017Z,17.87
2023-02-08T21:21:42.860Z,19.13
2023-02-08T21:24:11.280Z,18.60
2023-02-08T21:26:38.413Z,17.70
2023-02-08T21:29:08.608Z,17.80
2023-02-08T21:31:36.716Z,18.57
2023-02-08T21:34:04.104Z,18.30
2023-02-08T21:36:30.978Z,19.07
2023-02-08T21:39:00.515Z,16.97
2023-02-08T21:41:29.990Z,18.40
2023-02-08T21:43:59.192Z,17.17
2023-02-08T21:46:27.880Z,18.97
2023-02-08T21:49:26.424Z,18.77
2023-02-08T21:52:11.999Z,20.13
2023-02-08T21:54:41.914Z,18.90
2023-02-08T21:57:19.106Z,17.60
2023-02-08T21:59:48.444Z,18.87
2023-02-08T22:02:21.738Z,20.00
2023-02-08T22:05:07.934Z,18.27
2023-02-08T22:07:55.041Z,17.83
2023-02-08T22:10:24.944Z,17.83
2023-02-08T22:12:55.188Z,18.10
2023-02-08T22:15:26.505Z,18.37
2023-02-08T22:17:55.883Z,19.10
2023-02-08T22:20:23.260Z,18.07
2023-02-08T22:22:52.632Z,18.73
2023-02-08T22:25:22.188Z,19.67
2023-02-08T22:27:49.139Z,19.67
2023-02-08T22:30:18.704Z,20.43
2023-02-08T22:32:47.955Z,19.13
2023-02-08T22:35:16.098Z,19.13
2023-02-08T22:37:42.918Z,18.73
2023-02-08T22:40:11.018Z,19.10
2023-02-08T22:42:39.991Z,18.97
2023-02-08T22:45:07.712Z,18.50
2023-02-08T22:47:35.209Z,18.67
2023-02-08T22:50:02.302Z,19.20
2023-02-08T22:52:30.789Z,19.60
2023-02-08T22:55:02.339Z,17.93
2023-02-08T22:57:32.177Z,18.37
2023-02-08T22:59:59.265Z,18.80
2023-02-08T23:02:26.296Z,19.43
2023-02-08T23:04:53.589Z,19.33
2023-02-08T23:07:20.853Z,19.63
2023-02-08T23:09:47.682Z,19.47
2023-02-08T23:12:14.621Z,18.77
2023-02-08T23:14:41.474Z,18.67
2023-02-08T23:17:09.592Z,19.10
2023-02-08T23:19:36.410Z,18.57
2023-02-08T23:22:03.236Z,17.90
2023-02-08T23:24:30.126Z,18.67
2023-02-08T23:26:57.035Z,18.87
2023-02-08T23:29:23.854Z,19.70
2023-02-08T23:31:50.890Z,19.20
2023-02-08T23:34:18.637Z,19.03
2023-02-08T23:36:45.566Z,19.63
2023-02-08T23:39:12.323Z,19.90
2023-02-08T23:41:39.130Z,19.07
2023-02-08T23:44:06.086Z,19.73
2023-02-08T23:46:33.402Z,19.67
2023-02-08T23:49:00.195Z,18.83
2023-02-08T23:51:27.232Z,20.50
2023-02-08T23:53:55.222Z,19.73
2023-02-08T23:56:30.287Z,20.17
2023-02-08T23:58:59.376Z,21.00
